Time;durP1;ratioP1;P1;durP2;ratioP2;P2;SDS_P1;SDS_P2;PMS_P1;PMS_P2;Temp;Humidity;BMP_temperature;BMP_pressure;BME280_temperature;BME280_humidity;BME280_pressure;Samples;Min_cycle;Max_cycle;Signal;HPM_P1;HPM_P2
2023/03/03 00:00:11;;;;;;;31.40;19.25;;;;;;;;;;5006309;28;20026;-82
2023/03/03 00:02:37;;;;;;;28.27;17.92;;;;;;;;;;5015579;28;20029;-80
2023/03/03 00:05:03;;;;;;;29.40;18.13;;;;;;;;;;5027833;28;20030;-83
2023/03/03 00:07:29;;;;;;;34.00;18.10;;;;;;;;;;5030899;28;20105;-83
2023/03/03 00:09:55;;;;;;;31.80;18.15;;;;;;;;;;5020415;28;20096;-81
2023/03/03 00:12:29;;;;;;;30.88;18.65;;;;;;;;;;5014938;28;20556;-83
2023/03/03 00:14:55;;;;;;;27.35;17.88;;;;;;;;;;4997893;28;20045;-83
2023/03/03 00:17:21;;;;;;;32.65;18.98;;;;;;;;;;4998795;28;20030;-83
2023/03/03 00:19:48;;;;;;;32.53;17.50;;;;;;;;;;4998632;28;20466;-83
2023/03/03 00:22:20;;;;;;;29.00;18.25;;;;;;;;;;5007514;28;20034;-83
2023/03/03 00:24:47;;;;;;;28.40;18.38;;;;;;;;;;5015699;28;20049;-83
2023/03/03 00:27:20;;;;;;;31.73;17.10;;;;;;;;;;5015459;28;20029;-83
2023/03/03 00:29:48;;;;;;;31.75;17.92;;;;;;;;;;5001847;28;20041;-83
2023/03/03 00:32:17;;;;;;;33.78;17.83;;;;;;;;;;5011310;28;20033;-83
2023/03/03 00:34:43;;;;;;;30.70;17.40;;;;;;;;;;5016585;28;20030;-83
2023/03/03 00:37:33;;;;;;;30.60;17.25;;;;;;;;;;5016201;28;20026;-82
2023/03/03 00:40:20;;;;;;;32.00;16.15;;;;;;;;;;5011252;28;20056;-83
2023/03/03 00:42:48;;;;;;;31.05;17.20;;;;;;;;;;5017845;28;20068;-81
2023/03/03 00:45:24;;;;;;;30.23;16.73;;;;;;;;;;5013273;28;20026;-82
2023/03/03 00:47:50;;;;;;;28.00;17.35;;;;;;;;;;5013505;28;20427;-84
2023/03/03 00:50:25;;;;;;;28.15;17.63;;;;;;;;;;5011790;28;20038;-83
2023/03/03 00:53:05;;;;;;;31.42;17.60;;;;;;;;;;5010239;28;20033;-82
2023/03/03 00:55:31;;;;;;;27.77;16.63;;;;;;;;;;5011495;28;20026;-83
2023/03/03 00:57:58;;;;;;;30.77;18.40;;;;;;;;;;4996349;28;20030;-82
2023/03/03 01:00:24;;;;;;;32.40;17.23;;;;;;;;;;5002236;28;20546;-82
2023/03/03 01:02:50;;;;;;;32.47;18.17;;;;;;;;;;5000292;28;20033;-83
2023/03/03 01:05:16;;;;;;;28.73;16.98;;;;;;;;;;4995926;28;20093;-81
2023/03/03 01:07:43;;;;;;;28.70;17.58;;;;;;;;;;4995789;28;20026;-83
2023/03/03 01:10:09;;;;;;;27.00;16.73;;;;;;;;;;5006888;28;20113;-83
2023/03/03 01:12:37;;;;;;;32.35;17.00;;;;;;;;;;4999061;28;20034;-82
2023/03/03 01:15:03;;;;;;;32.72;18.15;;;;;;;;;;4995720;28;20026;-83
2023/03/03 01:17:30;;;;;;;27.38;16.77;;;;;;;;;;4993875;28;20030;-83
2023/03/03 01:19:56;;;;;;;29.20;16.85;;;;;;;;;;4993601;28;20026;-83
2023/03/03 01:22:22;;;;;;;27.33;18.10;;;;;;;;;;5005530;28;20022;-82
2023/03/03 01:24:48;;;;;;;29.02;17.60;;;;;;;;;;5014393;28;20483;-83
2023/03/03 01:27:14;;;;;;;29.42;17.40;;;;;;;;;;5001597;28;20038;-81
2023/03/03 01:29:40;;;;;;;31.83;18.27;;;;;;;;;;4995646;28;20033;-82
2023/03/03 01:32:06;;;;;;;32.08;18.02;;;;;;;;;;5003502;28;20026;-82
2023/03/03 01:34:32;;;;;;;29.50;16.80;;;;;;;;;;4994473;28;20137;-82
2023/03/03 01:36:59;;;;;;;31.73;17.88;;;;;;;;;;5006185;28;20026;-83
2023/03/03 01:39:25;;;;;;;29.52;16.20;;;;;;;;;;4997345;28;20019;-82
2023/03/03 01:41:52;;;;;;;28.52;17.02;;;;;;;;;;4995896;28;20069;-82
2023/03/03 01:44:18;;;;;;;26.73;16.65;;;;;;;;;;4997531;28;20394;-82
2023/03/03 01:46:50;;;;;;;26.08;16.08;;;;;;;;;;4993677;28;20042;-82
2023/03/03 01:49:22;;;;;;;25.05;16.73;;;;;;;;;;5006587;28;20026;-82
2023/03/03 01:51:50;;;;;;;27.65;16.42;;;;;;;;;;5011853;28;20410;-83
2023/03/03 01:54:20;;;;;;;26.95;15.18;;;;;;;;;;5001504;28;20026;-81
2023/03/03 01:56:46;;;;;;;26.63;16.25;;;;;;;;;;5015625;28;20049;-82
2023/03/03 01:59:15;;;;;;;27.25;17.25;;;;;;;;;;5014664;28;20022;-82
2023/03/03 02:01:41;;;;;;;31.33;16.75;;;;;;;;;;5011608;28;20022;-83
2023/03/03 02:04:09;;;;;;;28.42;16.73;;;;;;;;;;5004095;28;20084;-82
2023/03/03 02:06:38;;;;;;;30.40;16.42;;;;;;;;;;4993688;28;20482;-82
2023/03/03 02:09:16;;;;;;;31.38;16.15;;;;;;;;;;4992714;28;20026;-83
2023/03/03 02:11:44;;;;;;;24.85;14.90;;;;;;;;;;5000031;28;20548;-81
2023/03/03 02:14:10;;;;;;;27.13;17.17;;;;;;;;;;5011357;28;20030;-82
2023/03/03 02:16:36;;;;;;;24.83;16.70;;;;;;;;;;5014286;28;20118;-81
2023/03/03 02:19:05;;;;;;;25.60;15.40;;;;;;;;;;4996977;28;20034;-82
2023/03/03 02:21:31;;;;;;;31.98;17.08;;;;;;;;;;4998988;28;20109;-82
2023/03/03 02:24:05;;;;;;;29.67;16.50;;;;;;;;;;5007272;28;20021;-83
2023/03/03 02:26:32;;;;;;;24.88;15.35;;;;;;;;;;5003001;28;20069;-83
2023/03/03 02:28:58;;;;;;;27.58;15.32;;;;;;;;;;4994944;28;20061;-83
2023/03/03 02:31:26;;;;;;;26.77;15.77;;;;;;;;;;4996500;28;20038;-83
2023/03/03 02:33:53;;;;;;;29.52;16.27;;;;;;;;;;5000878;28;20030;-82
2023/03/03 02:36:20;;;;;;;29.02;16.58;;;;;;;;;;5014220;28;20072;-82
2023/03/03 02:38:56;;;;;;;26.10;15.60;;;;;;;;;;5018379;28;20040;-81
2023/03/03 02:41:34;;;;;;;25.90;15.75;;;;;;;;;;5008215;28;20093;-83
2023/03/03 02:44:01;;;;;;;25.38;14.15;;;;;;;;;;5000384;28;20026;-83
2023/03/03 02:46:28;;;;;;;29.15;15.68;;;;;;;;;;5005761;28;20661;-83
2023/03/03 02:48:54;;;;;;;30.25;16.55;;;;;;;;;;5003297;28;20062;-83
2023/03/03 02:51:20;;;;;;;30.67;17.60;;;;;;;;;;4998282;28;20029;-83
2023/03/03 02:53:46;;;;;;;30.10;16.65;;;;;;;;;;5001068;28;20505;-82
2023/03/03 02:56:13;;;;;;;30.20;17.20;;;;;;;;;;5016596;28;20058;-83
2023/03/03 02:58:39;;;;;;;32.40;16.83;;;;;;;;;;5011453;28;20022;-83
2023/03/03 03:01:05;;;;;;;28.15;15.73;;;;;;;;;;5006418;28;20083;-83
2023/03/03 03:03:31;;;;;;;29.60;15.80;;;;;;;;;;5013419;28;20033;-84
2023/03/03 03:05:57;;;;;;;28.90;16.80;;;;;;;;;;5015967;28;20095;-82
2023/03/03 03:08:23;;;;;;;28.38;16.42;;;;;;;;;;5015483;28;20022;-83
2023/03/03 03:10:49;;;;;;;26.48;13.50;;;;;;;;;;5016007;28;20022;-83
2023/03/03 03:13:15;;;;;;;24.98;15.13;;;;;;;;;;4997297;28;20023;-82
2023/03/03 03:15:41;;;;;;;25.88;15.38;;;;;;;;;;4998573;28;20022;-83
2023/03/03 03:18:07;;;;;;;26.38;14.63;;;;;;;;;;5015894;28;20473;-82
2023/03/03 03:20:38;;;;;;;28.35;15.80;;;;;;;;;;5013714;28;20081;-83
2023/03/03 03:23:05;;;;;;;29.38;16.52;;;;;;;;;;5003732;28;20030;-82
2023/03/03 03:25:31;;;;;;;30.45;16.02;;;;;;;;;;5013985;28;20058;-83
2023/03/03 03:27:57;;;;;;;27.00;15.50;;;;;;;;;;5001297;28;20022;-82
2023/03/03 03:30:23;;;;;;;26.58;15.15;;;;;;;;;;5014776;28;20464;-82
2023/03/03 03:32:49;;;;;;;29.17;15.07;;;;;;;;;;5012059;28;20026;-82
2023/03/03 03:35:16;;;;;;;25.15;15.13;;;;;;;;;;5017546;28;20032;-81
2023/03/03 03:37:42;;;;;;;30.75;15.23;;;;;;;;;;5019378;28;20022;-82
2023/03/03 03:40:08;;;;;;;24.80;14.88;;;;;;;;;;5017015;28;20072;-84
2023/03/03 03:42:34;;;;;;;28.42;16.13;;;;;;;;;;5014235;28;20086;-84
2023/03/03 03:45:00;;;;;;;27.52;15.10;;;;;;;;;;5000168;28;20046;-83
2023/03/03 03:47:26;;;;;;;31.73;16.40;;;;;;;;;;4999126;28;20068;-84
2023/03/03 03:49:52;;;;;;;24.83;14.82;;;;;;;;;;5013479;28;20056;-82
2023/03/03 03:52:18;;;;;;;26.58;14.20;;;;;;;;;;4999950;28;20030;-81
2023/03/03 03:54:44;;;;;;;28.00;15.38;;;;;;;;;;4999387;28;20033;-81
2023/03/03 03:57:10;;;;;;;31.00;16.95;;;;;;;;;;4999429;28;20551;-83
2023/03/03 03:59:37;;;;;;;31.73;16.92;;;;;;;;;;5000023;28;20023;-82
2023/03/03 04:02:03;;;;;;;29.45;16.88;;;;;;;;;;5009358;28;20387;-84
2023/03/03 04:04:29;;;;;;;29.13;17.08;;;;;;;;;;4996905;28;20029;-83
2023/03/03 04:06:55;;;;;;;32.45;17.27;;;;;;;;;;4998080;28;20037;-83
2023/03/03 04:09:21;;;;;;;31.67;17.55;;;;;;;;;;4996460;28;20030;-83
2023/03/03 04:11:47;;;;;;;33.15;17.95;;;;;;;;;;4996771;28;20034;-82
2023/03/03 04:14:13;;;;;;;28.52;16.05;;;;;;;;;;5004271;28;20030;-82
2023/03/03 04:16:39;;;;;;;27.45;15.80;;;;;;;;;;5012561;28;20022;-83
2023/03/03 04:19:05;;;;;;;32.50;16.40;;;;;;;;;;4996613;28;20057;-83
2023/03/03 04:21:31;;;;;;;28.92;15.18;;;;;;;;;;4997563;28;20034;-82
2023/03/03 04:23:59;;;;;;;28.00;16.63;;;;;;;;;;4997049;28;20023;-84
2023/03/03 04:26:25;;;;;;;32.75;16.60;;;;;;;;;;4997380;28;20042;-83
2023/03/03 04:28:51;;;;;;;29.73;16.23;;;;;;;;;;5013986;28;20113;-84
2023/03/03 04:31:19;;;;;;;27.23;16.23;;;;;;;;;;5016882;28;20508;-84
2023/03/03 04:33:45;;;;;;;31.15;16.67;;;;;;;;;;5003200;28;20038;-82
2023/03/03 04:36:11;;;;;;;25.70;14.93;;;;;;;;;;4996610;28;20398;-82
2023/03/03 04:38:37;;;;;;;30.17;17.08;;;;;;;;;;4996402;28;20129;-82
2023/03/03 04:41:03;;;;;;;30.27;16.52;;;;;;;;;;4998481;28;20023;-83
2023/03/03 04:43:29;;;;;;;26.20;15.30;;;;;;;;;;5007434;28;20513;-82
2023/03/03 04:45:55;;;;;;;28.83;15.90;;;;;;;;;;4997622;28;20034;-82
2023/03/03 04:48:21;;;;;;;29.85;16.05;;;;;;;;;;4999116;28;20057;-82
2023/03/03 04:50:47;;;;;;;33.83;16.23;;;;;;;;;;5011083;28;20136;-84
2023/03/03 04:53:13;;;;;;;29.05;16.27;;;;;;;;;;5016174;28;20548;-82
2023/03/03 04:55:39;;;;;;;30.48;17.52;;;;;;;;;;4995932;28;20065;-83
2023/03/03 04:58:06;;;;;;;33.22;16.33;;;;;;;;;;4997807;28;20022;-84
2023/03/03 05:00:32;;;;;;;28.80;16.27;;;;;;;;;;5007926;28;20022;-82
2023/03/03 05:02:58;;;;;;;33.55;17.27;;;;;;;;;;5004104;28;20027;-82
2023/03/03 05:05:24;;;;;;;34.10;17.88;;;;;;;;;;4996266;28;20019;-84
2023/03/03 05:07:50;;;;;;;36.60;17.80;;;;;;;;;;4999149;28;20052;-83
2023/03/03 05:10:16;;;;;;;35.20;18.75;;;;;;;;;;5013920;28;20033;-82
2023/03/03 05:12:43;;;;;;;34.53;19.55;;;;;;;;;;5016057;28;20029;-83
2023/03/03 05:15:09;;;;;;;34.22;18.55;;;;;;;;;;5014433;28;20030;-84
2023/03/03 05:17:36;;;;;;;32.22;18.90;;;;;;;;;;5016046;28;20029;-84
2023/03/03 05:20:04;;;;;;;34.85;18.77;;;;;;;;;;4997672;28;20018;-83
2023/03/03 05:22:30;;;;;;;33.30;18.20;;;;;;;;;;4998860;28;20110;-84
2023/03/03 05:24:56;;;;;;;40.20;20.08;;;;;;;;;;5000023;28;20104;-84
2023/03/03 05:27:22;;;;;;;47.67;23.92;;;;;;;;;;5000457;28;20038;-84
2023/03/03 05:29:48;;;;;;;46.15;23.38;;;;;;;;;;5003526;28;20443;-83
2023/03/03 05:32:14;;;;;;;45.28;23.60;;;;;;;;;;5002315;28;20034;-82
2023/03/03 05:34:40;;;;;;;50.38;24.67;;;;;;;;;;4999156;28;20030;-83
2023/03/03 05:37:06;;;;;;;47.83;24.52;;;;;;;;;;5013762;28;20030;-81
2023/03/03 05:39:33;;;;;;;44.15;22.45;;;;;;;;;;5014814;28;20032;-83
2023/03/03 05:42:05;;;;;;;44.38;24.23;;;;;;;;;;5003386;28;20026;-81
2023/03/03 05:44:31;;;;;;;49.22;24.90;;;;;;;;;;5006668;28;20437;-84
2023/03/03 05:50:35;;;;;;;52.22;27.63;;;;;;;;;;5000651;28;20033;-84
2023/03/03 05:53:01;;;;;;;58.53;26.90;;;;;;;;;;4996819;28;20018;-81
2023/03/03 05:55:27;;;;;;;46.00;24.75;;;;;;;;;;4999664;28;20023;-84
2023/03/03 05:57:53;;;;;;;48.67;26.70;;;;;;;;;;5001082;28;20022;-84
2023/03/03 06:00:20;;;;;;;51.55;27.25;;;;;;;;;;5009784;28;20037;-84
2023/03/03 06:02:46;;;;;;;53.00;26.80;;;;;;;;;;5000287;28;20033;-84
2023/03/03 06:05:12;;;;;;;49.58;25.83;;;;;;;;;;5005979;28;20064;-84
2023/03/03 06:07:38;;;;;;;48.80;26.58;;;;;;;;;;5001224;28;20426;-84
2023/03/03 06:10:04;;;;;;;46.63;25.55;;;;;;;;;;4997643;28;20040;-84
2023/03/03 06:12:30;;;;;;;55.17;28.35;;;;;;;;;;4999017;28;20041;-83
2023/03/03 06:14:56;;;;;;;51.78;26.85;;;;;;;;;;5010163;28;20030;-83
2023/03/03 06:17:22;;;;;;;55.80;27.92;;;;;;;;;;5000473;28;20077;-84
2023/03/03 06:19:48;;;;;;;51.67;26.92;;;;;;;;;;5012083;28;20486;-83
2023/03/03 06:22:15;;;;;;;51.80;26.60;;;;;;;;;;5004119;28;20026;-82
2023/03/03 06:24:41;;;;;;;48.13;27.70;;;;;;;;;;5004048;28;20034;-82
2023/03/03 06:27:07;;;;;;;46.70;27.88;;;;;;;;;;4999777;28;20019;-83
2023/03/03 06:29:33;;;;;;;50.83;26.95;;;;;;;;;;5012312;28;20389;-84
2023/03/03 06:31:59;;;;;;;52.15;28.10;;;;;;;;;;5004582;28;20086;-82
2023/03/03 06:34:25;;;;;;;48.80;27.85;;;;;;;;;;5005656;28;20026;-83
2023/03/03 06:36:51;;;;;;;44.30;24.75;;;;;;;;;;4999539;28;20031;-82
2023/03/03 06:39:17;;;;;;;48.20;25.17;;;;;;;;;;5014687;28;20058;-82
2023/03/03 06:41:43;;;;;;;39.80;25.63;;;;;;;;;;5008469;28;20022;-82
2023/03/03 06:44:10;;;;;;;44.83;25.65;;;;;;;;;;5006854;28;20030;-83
2023/03/03 06:46:36;;;;;;;45.22;23.95;;;;;;;;;;5004471;28;20034;-83
2023/03/03 06:49:03;;;;;;;46.10;24.52;;;;;;;;;;5009413;28;20461;-79
2023/03/03 06:51:38;;;;;;;45.47;25.73;;;;;;;;;;5003156;28;20038;-79
2023/03/03 06:54:18;;;;;;;44.33;23.75;;;;;;;;;;5010422;28;20026;-81
2023/03/03 06:56:45;;;;;;;44.13;24.15;;;;;;;;;;5004772;28;20397;-82
2023/03/03 07:02:19;;;;;;;44.28;25.92;;;;;;;;;;5000256;28;20118;-83
2023/03/03 07:04:45;;;;;;;43.90;24.42;;;;;;;;;;5010025;28;20113;-82
2023/03/03 07:07:23;;;;;;;47.28;26.65;;;;;;;;;;5007603;28;20057;-82
2023/03/03 07:09:50;;;;;;;46.30;25.42;;;;;;;;;;5003345;28;20031;-82
2023/03/03 07:12:21;;;;;;;41.40;24.55;;;;;;;;;;4996456;28;20034;-80
2023/03/03 07:14:54;;;;;;;43.88;25.30;;;;;;;;;;5002407;28;20041;-79
2023/03/03 07:17:20;;;;;;;43.33;26.13;;;;;;;;;;4998519;28;20014;-82
2023/03/03 07:19:47;;;;;;;46.55;26.00;;;;;;;;;;5002417;28;20041;-81
2023/03/03 07:22:13;;;;;;;51.60;27.65;;;;;;;;;;5002510;28;20477;-82
2023/03/03 07:24:40;;;;;;;42.83;25.00;;;;;;;;;;5007054;28;20034;-81
2023/03/03 07:27:11;;;;;;;45.33;25.98;;;;;;;;;;5003760;28;20038;-81
2023/03/03 07:29:40;;;;;;;47.80;25.60;;;;;;;;;;4997013;28;20034;-79
2023/03/03 07:32:16;;;;;;;47.40;25.92;;;;;;;;;;5001594;28;20106;-79
2023/03/03 07:34:44;;;;;;;43.75;25.13;;;;;;;;;;5004565;28;20041;-79
2023/03/03 07:37:12;;;;;;;48.65;26.90;;;;;;;;;;5008500;28;20498;-79
2023/03/03 07:39:39;;;;;;;46.03;25.20;;;;;;;;;;5006599;28;20029;-81
2023/03/03 07:42:08;;;;;;;44.30;26.10;;;;;;;;;;5005856;28;20026;-80
2023/03/03 07:44:35;;;;;;;42.80;24.13;;;;;;;;;;5004811;28;20493;-81
2023/03/03 07:47:14;;;;;;;43.80;26.10;;;;;;;;;;5007159;28;20069;-82
2023/03/03 07:49:40;;;;;;;48.15;27.38;;;;;;;;;;4999880;28;20030;-82
2023/03/03 07:52:21;;;;;;;43.35;24.92;;;;;;;;;;5006342;28;20069;-82
2023/03/03 07:54:47;;;;;;;42.75;26.08;;;;;;;;;;5004210;28;20026;-82
2023/03/03 07:57:26;;;;;;;47.40;26.60;;;;;;;;;;5014754;28;20030;-82
2023/03/03 08:00:00;;;;;;;43.03;24.58;;;;;;;;;;5012758;28;20076;-82
2023/03/03 08:02:26;;;;;;;42.50;25.98;;;;;;;;;;5007832;28;20031;-82
2023/03/03 08:04:53;;;;;;;44.55;24.65;;;;;;;;;;5003190;28;20030;-82
2023/03/03 08:07:21;;;;;;;37.85;23.92;;;;;;;;;;5010299;28;20021;-82
2023/03/03 08:09:47;;;;;;;38.97;23.83;;;;;;;;;;5023189;28;20089;-82
2023/03/03 08:12:31;;;;;;;35.78;22.92;;;;;;;;;;5014907;28;20049;-82
2023/03/03 08:15:07;;;;;;;41.58;24.33;;;;;;;;;;5005910;28;20038;-83
2023/03/03 08:17:36;;;;;;;37.78;25.27;;;;;;;;;;5001300;28;20137;-81
2023/03/03 08:20:08;;;;;;;43.35;24.00;;;;;;;;;;5004704;28;20061;-81
2023/03/03 08:22:35;;;;;;;39.60;23.45;;;;;;;;;;5001063;28;20035;-81
2023/03/03 08:25:01;;;;;;;38.70;22.40;;;;;;;;;;5007427;28;20048;-81
2023/03/03 08:27:27;;;;;;;39.40;23.27;;;;;;;;;;4998233;28;20034;-81
2023/03/03 08:29:53;;;;;;;38.58;23.80;;;;;;;;;;5008060;28;20034;-81
2023/03/03 08:32:19;;;;;;;39.42;23.50;;;;;;;;;;4998611;28;20042;-82
2023/03/03 08:34:45;;;;;;;38.80;23.05;;;;;;;;;;5017774;28;20030;-81
2023/03/03 08:37:11;;;;;;;38.17;22.33;;;;;;;;;;5003638;28;20022;-81
2023/03/03 08:39:37;;;;;;;40.53;24.17;;;;;;;;;;5001173;28;20026;-80
2023/03/03 08:42:03;;;;;;;40.97;23.83;;;;;;;;;;5005459;28;20030;-82
2023/03/03 08:44:29;;;;;;;37.35;22.92;;;;;;;;;;5010498;28;20044;-82
2023/03/03 08:46:55;;;;;;;41.78;23.63;;;;;;;;;;5006387;28;20046;-81
2023/03/03 08:49:21;;;;;;;39.00;23.83;;;;;;;;;;5010486;28;20029;-81
2023/03/03 08:51:48;;;;;;;39.92;24.23;;;;;;;;;;5010115;28;20430;-82
2023/03/03 08:54:14;;;;;;;37.05;22.15;;;;;;;;;;5003711;28;20066;-80
2023/03/03 08:56:40;;;;;;;40.03;23.73;;;;;;;;;;5032864;28;20036;-81
2023/03/03 08:59:06;;;;;;;39.58;23.30;;;;;;;;;;5006180;28;20490;-82
2023/03/03 09:01:32;;;;;;;38.00;22.83;;;;;;;;;;5007372;28;20042;-81
2023/03/03 09:03:58;;;;;;;38.00;24.95;;;;;;;;;;5005002;28;20473;-82
2023/03/03 09:06:24;;;;;;;40.67;25.08;;;;;;;;;;5002004;28;20034;-82
2023/03/03 09:08:50;;;;;;;41.75;24.23;;;;;;;;;;5015633;28;20532;-82
2023/03/03 09:11:21;;;;;;;41.55;24.35;;;;;;;;;;5001625;28;20026;-80
2023/03/03 09:13:52;;;;;;;41.50;24.05;;;;;;;;;;5004496;28;20058;-82
2023/03/03 09:16:20;;;;;;;40.65;23.60;;;;;;;;;;5000374;28;20026;-82
2023/03/03 09:18:46;;;;;;;40.47;24.98;;;;;;;;;;5000335;28;20046;-81
2023/03/03 09:21:21;;;;;;;39.88;24.90;;;;;;;;;;5011049;28;20037;-81
2023/03/03 09:23:55;;;;;;;39.28;24.42;;;;;;;;;;5003157;28;20406;-81
2023/03/03 09:26:31;;;;;;;37.95;23.15;;;;;;;;;;4997939;28;20112;-81
2023/03/03 09:29:01;;;;;;;41.05;24.15;;;;;;;;;;5007162;28;20022;-82
2023/03/03 09:31:30;;;;;;;38.45;24.15;;;;;;;;;;5028296;28;20110;-81
2023/03/03 09:33:58;;;;;;;38.22;23.58;;;;;;;;;;5000428;28;20406;-81
2023/03/03 09:36:28;;;;;;;36.25;23.80;;;;;;;;;;4997625;28;20019;-81
2023/03/03 09:38:55;;;;;;;40.30;24.30;;;;;;;;;;4996913;28;20037;-81
2023/03/03 09:41:34;;;;;;;40.08;24.67;;;;;;;;;;4996960;28;20029;-81
2023/03/03 09:43:59;;;;;;;41.58;24.35;;;;;;;;;;4999107;28;20085;-81
2023/03/03 09:46:37;;;;;;;38.67;24.35;;;;;;;;;;5002418;28;20034;-81
2023/03/03 09:49:11;;;;;;;36.63;22.98;;;;;;;;;;5009965;28;20032;-81
2023/03/03 09:51:43;;;;;;;38.65;24.20;;;;;;;;;;5015680;28;20034;-82
2023/03/03 09:54:16;;;;;;;39.22;22.98;;;;;;;;;;5016231;28;20021;-81
2023/03/03 09:57:08;;;;;;;36.90;23.55;;;;;;;;;;5018173;28;20022;-83
2023/03/03 09:59:57;;;;;;;38.47;23.42;;;;;;;;;;5004245;28;20038;-81
2023/03/03 10:02:31;;;;;;;39.47;23.50;;;;;;;;;;5004408;28;20097;-81
2023/03/03 10:08:06;;;;;;;40.42;24.98;;;;;;;;;;4997990;28;20110;-82
2023/03/03 10:10:56;;;;;;;32.70;21.70;;;;;;;;;;5000982;28;20033;-82
2023/03/03 10:13:40;;;;;;;38.35;22.90;;;;;;;;;;5011788;28;20041;-82
2023/03/03 10:16:12;;;;;;;36.25;22.73;;;;;;;;;;5015998;28;20120;-82
2023/03/03 10:18:57;;;;;;;35.50;23.30;;;;;;;;;;5017957;28;20044;-82
2023/03/03 10:21:35;;;;;;;34.40;21.73;;;;;;;;;;5015773;28;20026;-81
2023/03/03 10:24:17;;;;;;;37.83;22.27;;;;;;;;;;4997883;28;20049;-82
2023/03/03 10:27:02;;;;;;;36.03;22.58;;;;;;;;;;4996464;28;20402;-81
2023/03/03 10:29:36;;;;;;;36.00;22.60;;;;;;;;;;4998110;28;20481;-82
2023/03/03 10:32:02;;;;;;;37.55;22.52;;;;;;;;;;5001735;28;20037;-81
2023/03/03 10:34:51;;;;;;;34.47;21.77;;;;;;;;;;5015624;28;20018;-81
2023/03/03 10:37:17;;;;;;;34.47;21.05;;;;;;;;;;5005680;28;20049;-82
2023/03/03 10:39:46;;;;;;;32.88;20.40;;;;;;;;;;5015860;28;20437;-82
2023/03/03 10:42:24;;;;;;;32.83;19.98;;;;;;;;;;5014426;28;20022;-82
2023/03/03 10:45:02;;;;;;;33.60;21.38;;;;;;;;;;5016908;28;20029;-81
2023/03/03 10:47:34;;;;;;;35.70;21.20;;;;;;;;;;5006175;28;20568;-81
2023/03/03 10:50:12;;;;;;;35.00;21.67;;;;;;;;;;5007634;28;20025;-82
2023/03/03 10:53:08;;;;;;;33.15;20.73;;;;;;;;;;5006786;28;20089;-82
2023/03/03 10:55:36;;;;;;;32.10;20.92;;;;;;;;;;5010486;28;20049;-82
2023/03/03 10:58:02;;;;;;;35.75;22.00;;;;;;;;;;5015755;28;20091;-82
2023/03/03 11:00:46;;;;;;;36.63;21.92;;;;;;;;;;4997596;28;20030;-82
2023/03/03 11:03:31;;;;;;;35.30;21.95;;;;;;;;;;5017202;28;20459;-80
2023/03/03 11:06:14;;;;;;;39.00;22.80;;;;;;;;;;5025552;28;20049;-81
2023/03/03 11:08:57;;;;;;;35.97;21.73;;;;;;;;;;5008745;28;20117;-80
2023/03/03 11:11:30;;;;;;;33.00;22.08;;;;;;;;;;4996467;28;20054;-81
2023/03/03 11:13:56;;;;;;;39.28;23.48;;;;;;;;;;4997606;28;20041;-81
2023/03/03 11:16:22;;;;;;;38.60;23.60;;;;;;;;;;4997251;28;20061;-81
2023/03/03 11:18:53;;;;;;;36.60;23.88;;;;;;;;;;4997769;28;20038;-82
2023/03/03 11:21:25;;;;;;;37.70;23.27;;;;;;;;;;5002315;28;20030;-81
2023/03/03 11:23:54;;;;;;;37.40;22.75;;;;;;;;;;5000112;28;20034;-81
2023/03/03 11:26:27;;;;;;;36.17;22.90;;;;;;;;;;5001034;28;20030;-80
2023/03/03 11:29:10;;;;;;;35.25;22.77;;;;;;;;;;5018348;28;20513;-81
2023/03/03 11:31:56;;;;;;;36.28;23.27;;;;;;;;;;4999693;28;20073;-81
2023/03/03 11:34:23;;;;;;;34.80;22.45;;;;;;;;;;5016076;28;20122;-82
2023/03/03 11:36:54;;;;;;;35.28;22.52;;;;;;;;;;5002672;28;20027;-81
2023/03/03 11:39:21;;;;;;;35.85;21.70;;;;;;;;;;5001457;28;20022;-82
2023/03/03 11:42:01;;;;;;;33.80;23.75;;;;;;;;;;5011434;28;20509;-82
2023/03/03 11:44:30;;;;;;;37.60;23.33;;;;;;;;;;5019523;28;20022;-82
2023/03/03 11:47:00;;;;;;;34.47;23.08;;;;;;;;;;5018702;28;20050;-82
2023/03/03 11:49:46;;;;;;;35.17;23.23;;;;;;;;;;5019347;28;20454;-82
2023/03/03 11:52:31;;;;;;;39.35;23.85;;;;;;;;;;5001337;28;20488;-82
2023/03/03 11:55:13;;;;;;;37.47;22.98;;;;;;;;;;5002346;28;20032;-82
2023/03/03 11:57:42;;;;;;;36.58;23.05;;;;;;;;;;5003893;28;20074;-82
2023/03/03 12:00:28;;;;;;;35.60;24.00;;;;;;;;;;5000348;28;20026;-82
2023/03/03 12:03:12;;;;;;;36.67;23.02;;;;;;;;;;4999140;28;20027;-82
2023/03/03 12:05:45;;;;;;;34.25;23.52;;;;;;;;;;4998502;28;20101;-82
2023/03/03 12:08:11;;;;;;;;;;;;;;;;;;4997808;28;20022;-82
2023/03/03 12:10:41;;;;;;;36.85;22.15;;;;;;;;;;4998516;28;20693;-83
2023/03/03 12:13:19;;;;;;;35.72;22.00;;;;;;;;;;5018510;28;20030;-82
2023/03/03 12:15:45;;;;;;;37.78;23.33;;;;;;;;;;5018849;28;20034;-82
2023/03/03 12:18:20;;;;;;;34.67;22.15;;;;;;;;;;5018528;28;20026;-82
2023/03/03 12:20:49;;;;;;;34.70;21.80;;;;;;;;;;5011160;28;20033;-81
2023/03/03 12:23:18;;;;;;;32.90;22.08;;;;;;;;;;5005311;28;20056;-82
2023/03/03 12:26:05;;;;;;;34.55;23.00;;;;;;;;;;5017347;28;20203;-81
2023/03/03 12:28:37;;;;;;;30.98;20.30;;;;;;;;;;5016913;28;20026;-82
2023/03/03 12:31:22;;;;;;;31.75;22.17;;;;;;;;;;5010727;28;20490;-84
2023/03/03 12:33:48;;;;;;;33.10;23.23;;;;;;;;;;5003477;28;20092;-82
2023/03/03 12:36:29;;;;;;;34.10;21.55;;;;;;;;;;4997661;28;20026;-82
2023/03/03 12:39:02;;;;;;;33.67;22.15;;;;;;;;;;4998837;28;20062;-81
2023/03/03 12:41:46;;;;;;;33.40;21.95;;;;;;;;;;4998950;28;20030;-82
2023/03/03 12:44:20;;;;;;;37.38;21.25;;;;;;;;;;4998382;28;20022;-82
2023/03/03 12:46:59;;;;;;;34.05;22.00;;;;;;;;;;4997866;28;20061;-83
2023/03/03 12:49:33;;;;;;;34.25;21.50;;;;;;;;;;4997839;28;20030;-82
2023/03/03 12:52:00;;;;;;;31.10;21.08;;;;;;;;;;4999556;28;20045;-82
2023/03/03 12:54:48;;;;;;;32.28;21.55;;;;;;;;;;5001950;28;20053;-82
2023/03/03 12:57:35;;;;;;;34.50;21.05;;;;;;;;;;5016887;28;20096;-82
2023/03/03 13:00:07;;;;;;;37.47;22.48;;;;;;;;;;5013930;28;20570;-81
2023/03/03 13:02:36;;;;;;;32.67;21.88;;;;;;;;;;4998161;28;20390;-81
2023/03/03 13:05:02;;;;;;;32.80;21.85;;;;;;;;;;4999016;28;20042;-82
2023/03/03 13:07:38;;;;;;;32.85;21.65;;;;;;;;;;5017545;28;20076;-82
2023/03/03 13:10:22;;;;;;;32.53;21.73;;;;;;;;;;5010666;28;20030;-82
2023/03/03 13:12:58;;;;;;;34.50;21.58;;;;;;;;;;5000610;28;20025;-82
2023/03/03 13:15:27;;;;;;;32.65;20.88;;;;;;;;;;5015060;28;20029;-81
2023/03/03 13:17:56;;;;;;;33.05;21.08;;;;;;;;;;4996624;28;20026;-82
2023/03/03 13:20:27;;;;;;;33.00;20.52;;;;;;;;;;4997819;28;20026;-82
2023/03/03 13:22:56;;;;;;;32.53;21.92;;;;;;;;;;5013078;28;20025;-82
2023/03/03 13:25:22;;;;;;;33.17;21.50;;;;;;;;;;5003492;28;20017;-82
2023/03/03 13:27:50;;;;;;;31.38;20.65;;;;;;;;;;5002432;28;20034;-81
2023/03/03 13:30:16;;;;;;;31.92;19.23;;;;;;;;;;5008188;28;20057;-82
2023/03/03 13:32:59;;;;;;;32.00;19.92;;;;;;;;;;5007935;28;20371;-82
2023/03/03 13:35:28;;;;;;;31.10;20.88;;;;;;;;;;4997884;28;20433;-82
2023/03/03 13:37:56;;;;;;;33.55;21.25;;;;;;;;;;4997636;28;20030;-82
2023/03/03 13:40:38;;;;;;;29.35;19.67;;;;;;;;;;4997381;28;20022;-82
2023/03/03 13:43:08;;;;;;;30.67;19.80;;;;;;;;;;4995947;28;20438;-82
2023/03/03 13:45:46;;;;;;;30.27;19.95;;;;;;;;;;4999296;28;20027;-82
2023/03/03 13:48:28;;;;;;;29.90;19.20;;;;;;;;;;5005069;28;20138;-81
2023/03/03 13:50:57;;;;;;;29.33;17.90;;;;;;;;;;5008590;28;20054;-82
2023/03/03 13:53:40;;;;;;;28.70;19.27;;;;;;;;;;5017854;28;20033;-81
2023/03/03 13:56:06;;;;;;;29.13;20.60;;;;;;;;;;5007716;28;20393;-83
2023/03/03 13:58:51;;;;;;;28.85;17.98;;;;;;;;;;5004314;28;20044;-81
2023/03/03 14:01:25;;;;;;;26.77;17.80;;;;;;;;;;5001600;28;20026;-82
2023/03/03 14:03:57;;;;;;;29.83;17.08;;;;;;;;;;4996983;28;20065;-82
2023/03/03 14:06:27;;;;;;;25.65;17.10;;;;;;;;;;5005076;28;20540;-81
2023/03/03 14:08:56;;;;;;;26.17;17.48;;;;;;;;;;5010347;28;20026;-81
2023/03/03 14:11:46;;;;;;;27.17;16.48;;;;;;;;;;5011652;28;20046;-82
2023/03/03 14:14:17;;;;;;;22.65;15.32;;;;;;;;;;5009142;28;20033;-81
2023/03/03 14:17:01;;;;;;;22.02;14.23;;;;;;;;;;5000621;28;20026;-82
2023/03/03 14:19:31;;;;;;;24.08;15.02;;;;;;;;;;5005975;28;20029;-82
2023/03/03 14:22:06;;;;;;;23.13;14.15;;;;;;;;;;5016678;28;20544;-81
2023/03/03 14:24:35;;;;;;;25.15;15.45;;;;;;;;;;5011337;28;20108;-83
2023/03/03 14:27:06;;;;;;;21.42;14.18;;;;;;;;;;5028421;28;20071;-82
2023/03/03 14:29:32;;;;;;;25.08;14.00;;;;;;;;;;5002346;28;20032;-82
2023/03/03 14:31:58;;;;;;;22.10;14.40;;;;;;;;;;5005661;28;20038;-82
2023/03/03 14:34:40;;;;;;;23.00;13.93;;;;;;;;;;5008487;28;20506;-81
2023/03/03 14:37:19;;;;;;;22.90;14.77;;;;;;;;;;5025594;28;20041;-81
2023/03/03 14:39:50;;;;;;;24.40;13.73;;;;;;;;;;5020771;28;20037;-80
2023/03/03 14:42:37;;;;;;;20.30;13.95;;;;;;;;;;5010315;28;20121;-80
2023/03/03 14:45:18;;;;;;;20.38;13.65;;;;;;;;;;5014957;28;20018;-82